createdAt,value
2023-07-25T00:00:03.490Z,42.40
2023-07-25T00:02:31.718Z,38.33
2023-07-25T00:05:00.319Z,36.47
2023-07-25T00:07:29.043Z,38.78
2023-07-25T00:09:58.170Z,36.15
2023-07-25T00:12:27.100Z,33.42
2023-07-25T00:14:56.363Z,33.97
2023-07-25T00:17:25.003Z,38.28
2023-07-25T00:19:53.658Z,34.97
2023-07-25T00:22:22.557Z,30.75
2023-07-25T00:24:51.299Z,34.25
2023-07-25T00:27:19.984Z,30.90
2023-07-25T00:29:49.874Z,33.42
2023-07-25T00:32:18.538Z,35.55
2023-07-25T00:34:47.184Z,30.63
2023-07-25T00:37:15.836Z,32.78
2023-07-25T00:39:44.414Z,34.17
2023-07-25T00:42:12.851Z,39.60
2023-07-25T00:44:41.451Z,28.33
2023-07-25T00:47:10.093Z,29.17
2023-07-25T00:49:38.718Z,29.98
2023-07-25T00:52:07.782Z,29.10
2023-07-25T00:54:36.480Z,31.77
2023-07-25T00:57:05.200Z,33.63
2023-07-25T00:59:33.885Z,25.95
2023-07-25T01:02:02.821Z,27.48
2023-07-25T01:04:31.499Z,33.35
2023-07-25T01:07:02.501Z,38.42
2023-07-25T01:09:48.755Z,32.78
2023-07-25T01:12:17.388Z,27.63
2023-07-25T01:14:46.439Z,33.38
2023-07-25T01:17:21.177Z,34.60
2023-07-25T01:19:51.106Z,33.45
2023-07-25T01:22:21.262Z,37.97
2023-07-25T01:24:50.653Z,32.72
2023-07-25T01:27:19.564Z,33.58
2023-07-25T01:29:48.316Z,36.25
2023-07-25T01:32:16.980Z,34.67
2023-07-25T01:34:45.620Z,35.47
2023-07-25T01:37:14.589Z,35.17
2023-07-25T01:39:45.074Z,34.65
2023-07-25T01:42:13.780Z,35.42
2023-07-25T01:44:42.413Z,36.97
2023-07-25T01:47:11.564Z,35.08
2023-07-25T01:49:40.055Z,35.80
2023-07-25T01:52:09.348Z,37.95
2023-07-25T01:54:38.009Z,39.55
2023-07-25T01:57:07.011Z,40.80
2023-07-25T01:59:35.514Z,38.13
2023-07-25T02:02:04.326Z,40.60
2023-07-25T02:04:32.981Z,37.50
2023-07-25T02:07:01.599Z,35.53
2023-07-25T02:09:30.310Z,36.78
2023-07-25T02:12:01.014Z,38.50
2023-07-25T02:14:29.750Z,40.33
2023-07-25T02:16:58.356Z,37.60
2023-07-25T02:19:27.015Z,38.40
2023-07-25T02:21:55.629Z,42.22
2023-07-25T02:24:24.447Z,39.20
2023-07-25T02:26:53.021Z,36.92
2023-07-25T02:29:21.759Z,35.60
2023-07-25T02:31:50.392Z,36.13
2023-07-25T02:34:19.082Z,37.05
2023-07-25T02:36:47.697Z,40.00
2023-07-25T02:39:16.344Z,37.13
2023-07-25T02:41:44.982Z,43.95
2023-07-25T02:44:13.659Z,38.97
2023-07-25T02:46:42.296Z,39.10
2023-07-25T02:49:10.869Z,39.45
2023-07-25T02:51:39.561Z,44.72
2023-07-25T02:54:08.244Z,39.33
2023-07-25T02:56:36.718Z,36.28
2023-07-25T02:59:05.346Z,41.10
2023-07-25T03:01:34.201Z,41.88
2023-07-25T03:04:03.416Z,39.35
2023-07-25T03:06:32.016Z,45.60
2023-07-25T03:09:00.569Z,41.53
2023-07-25T03:11:29.464Z,40.58
2023-07-25T03:13:58.489Z,41.60
2023-07-25T03:16:27.313Z,40.47
2023-07-25T03:18:56.003Z,46.05
2023-07-25T03:21:25.740Z,42.13
2023-07-25T03:23:54.337Z,39.67
2023-07-25T03:26:23.025Z,40.05
2023-07-25T03:28:51.667Z,45.08
2023-07-25T03:31:20.259Z,39.42
2023-07-25T03:33:48.736Z,40.80
2023-07-25T03:36:17.403Z,38.10
2023-07-25T03:38:46.043Z,40.58
2023-07-25T03:41:14.901Z,43.47
2023-07-25T03:43:43.615Z,38.55
2023-07-25T03:46:12.228Z,41.65
2023-07-25T03:48:41.887Z,46.15
2023-07-25T03:51:10.455Z,44.00
2023-07-25T03:53:39.134Z,48.08
2023-07-25T03:56:07.767Z,52.28
2023-07-25T03:58:36.366Z,42.22
2023-07-25T04:01:05.039Z,40.38
2023-07-25T04:03:33.708Z,39.38
2023-07-25T04:06:02.446Z,35.63
2023-07-25T04:08:31.189Z,42.80
2023-07-25T04:10:59.882Z,40.70
2023-07-25T04:13:27.851Z,39.35
2023-07-25T04:15:56.629Z,42.60
2023-07-25T04:18:25.274Z,35.75
2023-07-25T04:20:54.476Z,43.50
2023-07-25T04:23:24.562Z,43.47
2023-07-25T04:25:53.216Z,38.75
2023-07-25T04:28:21.858Z,45.95
2023-07-25T04:30:50.593Z,40.72
2023-07-25T04:33:19.236Z,41.58
2023-07-25T04:35:48.012Z,40.85
2023-07-25T04:38:17.237Z,43.47
2023-07-25T04:40:46.446Z,40.38
2023-07-25T04:43:15.097Z,41.50
2023-07-25T04:45:44.000Z,44.67
2023-07-25T04:48:12.703Z,40.85
2023-07-25T04:50:41.403Z,48.75
2023-07-25T04:53:10.075Z,40.97
2023-07-25T04:55:38.674Z,44.28
2023-07-25T04:58:07.295Z,43.40
2023-07-25T05:00:35.951Z,40.60
2023-07-25T05:03:04.682Z,41.00
2023-07-25T05:05:33.332Z,48.05
2023-07-25T05:08:02.084Z,41.33
2023-07-25T05:10:30.731Z,37.85
2023-07-25T05:12:59.442Z,40.70
2023-07-25T05:15:28.085Z,40.38
2023-07-25T05:17:56.715Z,39.05
2023-07-25T05:20:25.424Z,39.47
2023-07-25T05:22:54.462Z,40.65
2023-07-25T05:25:23.122Z,40.00
2023-07-25T05:27:51.842Z,34.97
2023-07-25T05:30:20.466Z,39.30
2023-07-25T05:32:52.203Z,39.33
2023-07-25T05:35:20.836Z,41.75
2023-07-25T05:37:49.453Z,42.28
2023-07-25T05:40:18.160Z,40.20
2023-07-25T05:42:46.758Z,41.17
2023-07-25T05:45:15.699Z,43.20
2023-07-25T05:47:44.555Z,39.40
2023-07-25T05:50:14.030Z,42.22
2023-07-25T05:52:42.688Z,47.65
2023-07-25T05:55:11.465Z,44.25
2023-07-25T05:57:40.116Z,45.97
2023-07-25T06:00:09.354Z,15.02
2023-07-25T06:02:38.139Z,8.57
2023-07-25T06:05:07.273Z,4.18
2023-07-25T06:07:35.922Z,3.10
2023-07-25T06:10:04.841Z,11.60
2023-07-25T06:12:33.748Z,1.10
2023-07-25T06:15:02.433Z,5.68
2023-07-25T06:17:31.196Z,2.13
2023-07-25T06:19:59.869Z,5.38
2023-07-25T06:22:28.942Z,2.92
2023-07-25T06:24:57.783Z,2.97
2023-07-25T06:27:27.021Z,2.40
2023-07-25T06:29:55.946Z,6.15
2023-07-25T06:32:25.464Z,3.13
2023-07-25T06:34:54.247Z,3.00
2023-07-25T06:37:23.049Z,13.35
2023-07-25T06:39:51.728Z,5.88
2023-07-25T06:42:20.503Z,3.75
2023-07-25T06:44:48.557Z,3.05
2023-07-25T06:47:17.201Z,3.42
2023-07-25T06:49:45.856Z,2.67
2023-07-25T06:52:14.575Z,2.15
2023-07-25T06:54:46.518Z,3.92
2023-07-25T06:57:15.277Z,2.47
2023-07-25T06:59:43.995Z,3.20
2023-07-25T07:02:12.016Z,3.22
2023-07-25T07:04:40.791Z,5.97
2023-07-25T07:07:09.526Z,3.88
2023-07-25T07:09:38.191Z,5.72
2023-07-25T07:12:07.451Z,5.68
2023-07-25T07:14:36.164Z,4.93
2023-07-25T07:17:05.330Z,5.72
2023-07-25T07:19:34.079Z,5.82
2023-07-25T07:22:03.477Z,5.75
2023-07-25T07:24:32.303Z,6.43
2023-07-25T07:27:00.979Z,5.22
2023-07-25T07:29:31.710Z,6.15
2023-07-25T07:32:02.385Z,6.90
2023-07-25T07:34:31.832Z,4.75
2023-07-25T07:37:00.807Z,6.28
2023-07-25T07:39:29.660Z,5.85
2023-07-25T07:41:58.507Z,5.82
2023-07-25T07:44:27.164Z,5.97
2023-07-25T07:46:55.898Z,5.30
2023-07-25T07:49:24.696Z,5.53
2023-07-25T07:52:10.305Z,5.25
2023-07-25T07:54:42.876Z,5.68
2023-07-25T07:57:11.562Z,5.53
2023-07-25T07:59:40.454Z,3.95
2023-07-25T08:02:09.198Z,4.22
2023-07-25T08:04:38.302Z,4.18
2023-07-25T08:07:07.179Z,6.90
2023-07-25T08:09:36.129Z,4.53
2023-07-25T08:12:06.017Z,5.10
2023-07-25T08:14:34.678Z,9.27
2023-07-25T08:17:03.482Z,12.77
2023-07-25T08:19:32.287Z,5.55
2023-07-25T08:22:01.537Z,4.05
2023-07-25T08:24:30.327Z,5.47
2023-07-25T08:26:59.024Z,4.70
2023-07-25T08:29:28.680Z,6.32
2023-07-25T08:31:57.454Z,4.13
2023-07-25T08:34:26.281Z,5.45
2023-07-25T08:36:54.930Z,4.63
2023-07-25T08:39:23.653Z,4.50
2023-07-25T08:41:56.390Z,5.13
2023-07-25T08:44:27.556Z,5.93
2023-07-25T08:46:58.943Z,5.13
2023-07-25T08:49:33.358Z,7.32
2023-07-25T08:52:05.420Z,4.55
2023-07-25T08:54:39.451Z,5.17
2023-07-25T08:57:09.484Z,5.05
2023-07-25T08:59:38.447Z,7.30
2023-07-25T09:02:08.913Z,6.40
2023-07-25T09:04:38.154Z,12.18
2023-07-25T09:07:08.593Z,6.28
2023-07-25T09:09:37.227Z,5.30
2023-07-25T09:12:06.753Z,5.45
2023-07-25T09:14:35.673Z,8.02
2023-07-25T09:17:04.236Z,5.45
2023-07-25T09:19:34.207Z,5.32
2023-07-25T09:22:04.352Z,5.03
2023-07-25T09:24:40.959Z,6.95
2023-07-25T09:27:19.773Z,9.05
2023-07-25T09:29:51.984Z,5.70
2023-07-25T09:32:26.600Z,5.78
2023-07-25T09:35:03.383Z,7.22
2023-07-25T09:37:32.134Z,5.55
2023-07-25T09:40:01.156Z,6.25
2023-07-25T09:42:29.748Z,6.97
2023-07-25T09:44:59.284Z,6.25
2023-07-25T09:47:30.542Z,6.05
2023-07-25T09:49:59.503Z,4.43
2023-07-25T09:52:28.458Z,7.55
2023-07-25T09:54:57.469Z,5.25
2023-07-25T09:57:26.423Z,7.28
2023-07-25T09:59:56.621Z,7.43
2023-07-25T10:02:27.368Z,6.80
2023-07-25T10:04:59.592Z,4.70
2023-07-25T10:07:28.555Z,5.70
2023-07-25T10:09:59.953Z,7.70
2023-07-25T10:12:28.588Z,8.00
2023-07-25T10:14:58.540Z,6.20
2023-07-25T10:17:27.811Z,8.95
2023-07-25T10:19:57.270Z,7.10
2023-07-25T10:22:44.702Z,5.97
2023-07-25T10:25:32.709Z,11.63
2023-07-25T10:28:01.620Z,6.03
2023-07-25T10:30:32.250Z,7.25
2023-07-25T10:33:06.055Z,5.60
2023-07-25T10:35:52.024Z,8.95
2023-07-25T10:38:37.988Z,8.93
2023-07-25T10:41:15.874Z,5.95
2023-07-25T10:43:51.471Z,8.00
2023-07-25T10:46:24.938Z,5.85
2023-07-25T10:48:55.926Z,8.40
2023-07-25T10:51:24.854Z,6.18
2023-07-25T10:54:12.653Z,5.53
2023-07-25T10:56:42.578Z,8.15
2023-07-25T10:59:11.280Z,6.07
2023-07-25T11:01:49.755Z,9.55
2023-07-25T11:04:34.455Z,6.22
2023-07-25T11:07:13.710Z,5.82
2023-07-25T11:09:44.577Z,5.15
2023-07-25T11:12:14.580Z,7.40
2023-07-25T11:14:47.219Z,6.15
2023-07-25T11:17:16.134Z,5.82
2023-07-25T11:19:44.874Z,11.50
2023-07-25T11:22:14.924Z,6.90
2023-07-25T11:24:45.187Z,6.25
2023-07-25T11:27:15.373Z,5.78
2023-07-25T11:29:44.269Z,5.72
2023-07-25T11:32:13.030Z,6.35
2023-07-25T11:34:42.499Z,7.45
2023-07-25T11:37:14.599Z,6.63
2023-07-25T11:39:43.367Z,5.80
2023-07-25T11:42:12.119Z,9.25
2023-07-25T11:44:40.685Z,7.25
2023-07-25T11:47:09.819Z,5.50
2023-07-25T11:49:49.523Z,5.25
2023-07-25T11:52:20.077Z,10.18
2023-07-25T11:54:48.800Z,6.28
2023-07-25T11:57:17.430Z,10.63
2023-07-25T11:59:46.033Z,6.78
2023-07-25T12:02:15.146Z,5.85
2023-07-25T12:04:47.950Z,5.22
2023-07-25T12:07:16.806Z,5.10
2023-07-25T12:09:55.645Z,5.85
2023-07-25T12:12:24.288Z,8.90
2023-07-25T12:15:00.812Z,6.50
2023-07-25T12:17:45.956Z,6.22
2023-07-25T12:20:23.772Z,6.60
2023-07-25T12:23:07.298Z,9.35
2023-07-25T12:25:39.086Z,7.07
2023-07-25T12:28:07.967Z,10.10
2023-07-25T12:30:36.607Z,8.02
2023-07-25T12:33:05.380Z,9.10
2023-07-25T12:35:34.925Z,9.38
2023-07-25T12:38:04.005Z,12.90
2023-07-25T12:40:33.001Z,9.10
2023-07-25T12:43:01.637Z,8.65
2023-07-25T12:45:30.325Z,9.43
2023-07-25T12:47:59.090Z,12.70
2023-07-25T12:50:28.002Z,8.98
2023-07-25T12:52:56.660Z,13.85
2023-07-25T12:55:25.525Z,7.03
2023-07-25T12:57:54.199Z,12.00
2023-07-25T13:00:22.846Z,9.35
2023-07-25T13:02:51.636Z,8.15
2023-07-25T13:05:21.318Z,8.20
2023-07-25T13:07:50.204Z,8.88
2023-07-25T13:10:18.339Z,6.28
2023-07-25T13:12:46.974Z,7.55
2023-07-25T13:15:15.637Z,7.63
2023-07-25T13:17:44.413Z,6.60
2023-07-25T13:20:13.035Z,7.13
2023-07-25T13:22:41.952Z,9.00
2023-07-25T13:25:10.605Z,11.65
2023-07-25T13:27:39.275Z,7.75
2023-07-25T13:30:08.712Z,5.93
2023-07-25T13:32:37.482Z,10.68
2023-07-25T13:35:06.802Z,5.30
2023-07-25T13:37:35.506Z,6.07
2023-07-25T13:40:04.311Z,6.90
2023-07-25T13:42:34.201Z,7.35
2023-07-25T13:45:02.799Z,6.47
2023-07-25T13:47:31.433Z,8.77
2023-07-25T13:50:05.164Z,8.13
2023-07-25T13:52:33.939Z,7.43
2023-07-25T13:55:02.516Z,4.88
2023-07-25T13:57:33.483Z,8.98
2023-07-25T14:00:03.390Z,12.10
2023-07-25T14:02:32.081Z,8.65
2023-07-25T14:05:00.817Z,5.78
2023-07-25T14:07:29.419Z,6.72
2023-07-25T14:09:58.159Z,8.00
2023-07-25T14:12:27.792Z,8.52
2023-07-25T14:14:58.803Z,8.05
2023-07-25T14:17:28.580Z,7.22
2023-07-25T14:19:57.296Z,6.35
2023-07-25T14:22:26.796Z,7.05
2023-07-25T14:24:57.589Z,6.50
2023-07-25T14:27:27.738Z,6.10
2023-07-25T14:29:56.437Z,4.50
2023-07-25T14:32:26.697Z,4.82
2023-07-25T14:34:55.642Z,4.78
2023-07-25T14:37:25.364Z,4.82
2023-07-25T14:39:55.053Z,6.22
2023-07-25T14:42:23.757Z,4.63
2023-07-25T14:44:52.363Z,6.40
2023-07-25T14:47:21.393Z,3.83
2023-07-25T14:49:50.133Z,7.50
2023-07-25T14:52:18.904Z,4.53
2023-07-25T14:54:47.542Z,5.63
2023-07-25T14:57:19.387Z,3.50
2023-07-25T14:59:48.050Z,4.05
2023-07-25T15:02:18.700Z,3.45
2023-07-25T15:04:47.612Z,4.60
2023-07-25T15:07:16.229Z,2.90
2023-07-25T15:09:44.957Z,4.05
2023-07-25T15:12:13.879Z,4.68
2023-07-25T15:14:42.583Z,6.25
2023-07-25T15:17:24.923Z,3.40
2023-07-25T15:20:00.726Z,5.20
2023-07-25T15:22:30.702Z,3.38
2023-07-25T15:24:59.996Z,2.88
2023-07-25T15:27:30.000Z,3.05
2023-07-25T15:29:59.426Z,3.47
2023-07-25T15:32:28.065Z,3.53
2023-07-25T15:34:56.832Z,3.10
2023-07-25T15:37:25.570Z,3.38
2023-07-25T15:39:54.260Z,4.45
2023-07-25T15:42:22.911Z,4.18
2023-07-25T15:44:51.511Z,3.92
2023-07-25T15:47:20.122Z,4.25
2023-07-25T15:49:48.757Z,4.57
2023-07-25T15:52:17.453Z,5.10
2023-07-25T15:54:46.141Z,2.75
2023-07-25T15:57:14.714Z,4.35
2023-07-25T15:59:43.399Z,5.03
2023-07-25T16:02:12.156Z,4.88
2023-07-25T16:04:40.858Z,3.33
2023-07-25T16:07:09.526Z,4.03
2023-07-25T16:09:38.876Z,5.07
2023-07-25T16:12:10.334Z,3.83
2023-07-25T16:14:39.045Z,4.25
2023-07-25T16:17:07.821Z,3.60
2023-07-25T16:19:36.492Z,3.47
2023-07-25T16:22:05.697Z,4.72
2023-07-25T16:24:34.391Z,3.20
2023-07-25T16:27:03.042Z,5.55
2023-07-25T16:29:31.821Z,9.80
2023-07-25T16:32:01.052Z,3.53
2023-07-25T16:34:29.708Z,3.15
2023-07-25T16:36:58.353Z,5.35
2023-07-25T16:39:27.028Z,2.67
2023-07-25T16:41:58.743Z,2.40
2023-07-25T16:44:27.448Z,4.63
2023-07-25T16:46:56.089Z,3.20
2023-07-25T16:49:24.718Z,6.60
2023-07-25T16:51:53.349Z,2.65
2023-07-25T16:54:22.127Z,2.65
2023-07-25T16:56:50.781Z,4.18
2023-07-25T16:59:19.381Z,4.80
2023-07-25T17:01:48.054Z,3.95
2023-07-25T17:04:16.792Z,3.83
2023-07-25T17:06:45.402Z,2.92
2023-07-25T17:09:14.082Z,6.20
2023-07-25T17:11:44.824Z,4.93
2023-07-25T17:14:13.464Z,2.45
2023-07-25T17:16:41.940Z,2.90
2023-07-25T17:19:10.595Z,3.40
2023-07-25T17:21:41.376Z,3.00
2023-07-25T17:24:10.752Z,4.68
2023-07-25T17:26:39.723Z,3.70
2023-07-25T17:29:08.389Z,4.03
2023-07-25T17:31:37.212Z,5.03
2023-07-25T17:34:06.163Z,2.65
2023-07-25T17:36:34.773Z,3.35
2023-07-25T17:39:03.933Z,3.30
2023-07-25T17:41:33.253Z,3.92
2023-07-25T17:44:02.067Z,2.90
2023-07-25T17:46:30.716Z,3.72
2023-07-25T17:49:01.324Z,2.17
2023-07-25T17:51:30.422Z,2.53
2023-07-25T17:53:59.334Z,3.15
2023-07-25T17:56:28.053Z,5.47
2023-07-25T17:58:56.682Z,8.23
2023-07-25T18:01:25.432Z,1.90
2023-07-25T18:03:54.138Z,1.45
2023-07-25T18:06:22.721Z,8.18
2023-07-25T18:08:51.560Z,9.15
2023-07-25T18:11:20.199Z,9.18
2023-07-25T18:13:48.866Z,1.75
2023-07-25T18:16:17.481Z,12.02
2023-07-25T18:18:46.160Z,8.13
2023-07-25T18:21:15.277Z,4.45
2023-07-25T18:23:43.904Z,8.77
2023-07-25T18:26:12.964Z,2.00
2023-07-25T18:28:41.596Z,2.45
2023-07-25T18:31:10.965Z,3.13
2023-07-25T18:33:41.045Z,1.08
2023-07-25T18:36:09.758Z,1.50
2023-07-25T18:38:38.507Z,8.90
2023-07-25T18:41:07.214Z,3.55
2023-07-25T18:43:35.895Z,1.40
2023-07-25T18:46:04.497Z,2.47
2023-07-25T18:48:33.228Z,2.45
2023-07-25T18:51:03.184Z,3.15
2023-07-25T18:53:31.857Z,8.10
2023-07-25T18:56:00.698Z,1.92
2023-07-25T18:58:31.021Z,4.50
2023-07-25T19:00:59.813Z,1.95
2023-07-25T19:03:30.143Z,1.75
2023-07-25T19:05:59.078Z,2.78
2023-07-25T19:08:27.832Z,4.53
2023-07-25T19:10:56.567Z,4.53
2023-07-25T19:13:25.146Z,1.92
2023-07-25T19:15:53.886Z,3.30
2023-07-25T19:18:22.561Z,1.98
2023-07-25T19:20:51.671Z,1.95
2023-07-25T19:23:26.500Z,3.03
2023-07-25T19:26:02.796Z,4.20
2023-07-25T19:28:31.626Z,1.50
2023-07-25T19:31:01.065Z,1.33
2023-07-25T19:33:32.367Z,1.90
2023-07-25T19:36:01.905Z,0.80
2023-07-25T19:38:30.965Z,4.53
2023-07-25T19:40:59.930Z,2.53
2023-07-25T19:43:28.581Z,1.20
2023-07-25T19:46:04.013Z,3.35
2023-07-25T19:48:32.792Z,1.60
2023-07-25T19:51:01.458Z,7.95
2023-07-25T19:53:30.015Z,1.05
2023-07-25T19:55:58.818Z,2.47
2023-07-25T19:58:27.447Z,6.47
2023-07-25T20:00:56.336Z,0.73
2023-07-25T20:03:25.148Z,3.47
2023-07-25T20:05:53.851Z,1.17
2023-07-25T20:08:22.426Z,1.20
2023-07-25T20:10:51.036Z,1.15
2023-07-25T20:13:19.807Z,1.67
2023-07-25T20:15:48.578Z,2.35
2023-07-25T20:18:17.279Z,3.08
2023-07-25T20:20:46.000Z,6.45
2023-07-25T20:23:14.863Z,3.05
2023-07-25T20:25:43.504Z,2.00
2023-07-25T20:28:12.100Z,5.45
2023-07-25T20:30:40.700Z,0.90
2023-07-25T20:33:09.215Z,4.80
2023-07-25T20:35:38.413Z,5.57
2023-07-25T20:38:06.988Z,0.90
2023-07-25T20:40:36.490Z,1.00
2023-07-25T20:43:05.182Z,1.75
2023-07-25T20:45:37.390Z,2.63
2023-07-25T20:48:06.775Z,2.97
2023-07-25T20:50:35.239Z,1.02
2023-07-25T20:53:07.191Z,0.80
2023-07-25T20:55:36.106Z,0.83
2023-07-25T20:58:04.798Z,0.75
2023-07-25T21:00:33.528Z,1.95
2023-07-25T21:03:02.161Z,1.27
2023-07-25T21:05:30.862Z,3.35
2023-07-25T21:07:59.518Z,2.08
2023-07-25T21:10:28.285Z,1.85
2023-07-25T21:12:56.928Z,3.17
2023-07-25T21:15:25.540Z,3.55
2023-07-25T21:18:06.680Z,3.00
2023-07-25T21:20:40.195Z,3.75
2023-07-25T21:23:08.865Z,0.50
2023-07-25T21:25:39.672Z,0.63
2023-07-25T21:28:08.362Z,2.58
2023-07-25T21:30:37.042Z,1.88
2023-07-25T21:33:06.046Z,1.80
2023-07-25T21:35:34.826Z,0.70
2023-07-25T21:38:03.510Z,1.08
2023-07-25T21:40:32.256Z,1.48
2023-07-25T21:43:00.945Z,4.13
2023-07-25T21:45:29.620Z,0.80
2023-07-25T21:47:58.252Z,0.70
2023-07-25T21:50:26.950Z,3.28
2023-07-25T21:52:55.744Z,0.75
2023-07-25T21:55:24.428Z,1.10
2023-07-25T21:57:53.042Z,1.15
2023-07-25T22:00:21.739Z,2.67
2023-07-25T22:02:50.432Z,3.55
2023-07-25T22:05:19.020Z,0.75
2023-07-25T22:07:48.695Z,1.85
2023-07-25T22:10:17.568Z,0.75
2023-07-25T22:12:49.171Z,0.60
2023-07-25T22:15:18.112Z,3.10
2023-07-25T22:17:46.750Z,6.57
2023-07-25T22:20:15.494Z,1.58
2023-07-25T22:22:44.230Z,0.55
2023-07-25T22:25:13.119Z,0.85
2023-07-25T22:27:41.589Z,3.25
2023-07-25T22:30:10.607Z,2.50
2023-07-25T22:32:39.372Z,4.32
2023-07-25T22:35:09.502Z,6.80
2023-07-25T22:37:38.225Z,1.20
2023-07-25T22:40:07.548Z,3.13
2023-07-25T22:42:36.108Z,0.50
2023-07-25T22:45:04.758Z,1.67
2023-07-25T22:47:33.460Z,0.82
2023-07-25T22:50:02.126Z,2.00
2023-07-25T22:52:30.807Z,5.00
2023-07-25T22:54:59.471Z,0.73
2023-07-25T22:57:28.111Z,1.38
2023-07-25T22:59:56.752Z,0.98
2023-07-25T23:02:25.489Z,0.43
2023-07-25T23:04:54.092Z,3.50
2023-07-25T23:07:22.711Z,2.83
2023-07-25T23:09:52.668Z,2.17
2023-07-25T23:12:23.574Z,2.55
2023-07-25T23:14:52.852Z,2.42
2023-07-25T23:17:21.367Z,6.03
2023-07-25T23:19:49.990Z,5.13
2023-07-25T23:22:18.666Z,4.13
2023-07-25T23:24:47.371Z,1.58
2023-07-25T23:27:16.067Z,6.72
2023-07-25T23:29:44.928Z,0.80
2023-07-25T23:32:13.531Z,2.17
2023-07-25T23:34:50.515Z,2.10
2023-07-25T23:37:19.418Z,0.70
2023-07-25T23:39:47.351Z,2.15
2023-07-25T23:42:17.418Z,4.30
2023-07-25T23:44:46.045Z,3.33
2023-07-25T23:47:14.724Z,0.70
2023-07-25T23:49:43.542Z,4.03
2023-07-25T23:52:12.204Z,1.73
2023-07-25T23:54:40.895Z,4.38
2023-07-25T23:57:09.786Z,1.95
2023-07-25T23:59:38.824Z,1.98
